sensor_id;sensor_type;location;lat;lon;timestamp;temperature;humidity
11591;DHT22;5851;54.050;9.974;2023-10-08T00:00:24;11.50;99.90
11591;DHT22;5851;54.050;9.974;2023-10-08T00:03:09;11.60;99.90
11591;DHT22;5851;54.050;9.974;2023-10-08T00:05:36;11.70;99.90
11591;DHT22;5851;54.050;9.974;2023-10-08T00:08:05;11.70;99.90
11591;DHT22;5851;54.050;9.974;2023-10-08T00:10:35;11.60;99.90
11591;DHT22;5851;54.050;9.974;2023-10-08T00:13:04;11.70;99.90
11591;DHT22;5851;54.050;9.974;2023-10-08T00:15:34;11.70;99.90
11591;DHT22;5851;54.050;9.974;2023-10-08T00:18:02;11.70;99.90
11591;DHT22;5851;54.050;9.974;2023-10-08T00:20:31;11.70;99.90
11591;DHT22;5851;54.050;9.974;2023-10-08T00:23:04;11.70;99.90
11591;DHT22;5851;54.050;9.974;2023-10-08T00:25:33;11.60;99.90
11591;DHT22;5851;54.050;9.974;2023-10-08T00:28:07;11.60;99.90
11591;DHT22;5851;54.050;9.974;2023-10-08T00:30:38;11.60;99.90
11591;DHT22;5851;54.050;9.974;2023-10-08T00:33:06;11.60;99.90
11591;DHT22;5851;54.050;9.974;2023-10-08T00:35:37;11.60;99.90
11591;DHT22;5851;54.050;9.974;2023-10-08T00:38:06;11.60;99.90
11591;DHT22;5851;54.050;9.974;2023-10-08T00:40:37;11.60;99.90
11591;DHT22;5851;54.050;9.974;2023-10-08T00:43:04;11.60;99.90
11591;DHT22;5851;54.050;9.974;2023-10-08T00:45:35;11.50;99.90
11591;DHT22;5851;54.050;9.974;2023-10-08T00:48:09;11.60;99.90
11591;DHT22;5851;54.050;9.974;2023-10-08T00:50:41;11.60;99.90
11591;DHT22;5851;54.050;9.974;2023-10-08T00:53:11;11.60;99.90
11591;DHT22;5851;54.050;9.974;2023-10-08T00:55:47;11.60;99.90
11591;DHT22;5851;54.050;9.974;2023-10-08T00:58:20;11.50;99.90
11591;DHT22;5851;54.050;9.974;2023-10-08T01:00:54;11.50;99.90
11591;DHT22;5851;54.050;9.974;2023-10-08T01:03:25;11.40;99.90
11591;DHT22;5851;54.050;9.974;2023-10-08T01:05:53;11.50;99.90
11591;DHT22;5851;54.050;9.974;2023-10-08T01:08:22;11.50;99.90
11591;DHT22;5851;54.050;9.974;2023-10-08T01:11:16;11.50;99.90
11591;DHT22;5851;54.050;9.974;2023-10-08T01:13:43;11.50;99.90
11591;DHT22;5851;54.050;9.974;2023-10-08T01:16:12;11.50;99.90
11591;DHT22;5851;54.050;9.974;2023-10-08T01:18:40;11.50;99.90
11591;DHT22;5851;54.050;9.974;2023-10-08T01:21:16;11.50;99.90
11591;DHT22;5851;54.050;9.974;2023-10-08T01:23:58;11.50;99.90
11591;DHT22;5851;54.050;9.974;2023-10-08T01:26:28;11.50;99.90
11591;DHT22;5851;54.050;9.974;2023-10-08T01:28:57;11.50;99.90
11591;DHT22;5851;54.050;9.974;2023-10-08T01:31:28;11.40;99.90
11591;DHT22;5851;54.050;9.974;2023-10-08T01:33:55;11.40;99.90
11591;DHT22;5851;54.050;9.974;2023-10-08T01:36:22;11.40;99.90
11591;DHT22;5851;54.050;9.974;2023-10-08T01:38:51;11.40;99.90
11591;DHT22;5851;54.050;9.974;2023-10-08T01:41:21;11.40;99.90
11591;DHT22;5851;54.050;9.974;2023-10-08T01:43:55;11.40;99.90
11591;DHT22;5851;54.050;9.974;2023-10-08T01:46:24;11.50;99.90
11591;DHT22;5851;54.050;9.974;2023-10-08T01:48:52;11.50;99.90
11591;DHT22;5851;54.050;9.974;2023-10-08T01:51:29;11.40;99.90
11591;DHT22;5851;54.050;9.974;2023-10-08T01:54:03;11.40;99.90
11591;DHT22;5851;54.050;9.974;2023-10-08T01:56:38;11.40;99.90
11591;DHT22;5851;54.050;9.974;2023-10-08T01:59:07;11.30;99.90
11591;DHT22;5851;54.050;9.974;2023-10-08T02:01:35;11.40;99.90
11591;DHT22;5851;54.050;9.974;2023-10-08T02:04:05;11.30;99.90
11591;DHT22;5851;54.050;9.974;2023-10-08T02:06:33;11.30;99.90
11591;DHT22;5851;54.050;9.974;2023-10-08T02:09:00;11.40;99.90
11591;DHT22;5851;54.050;9.974;2023-10-08T02:11:43;11.40;99.90
11591;DHT22;5851;54.050;9.974;2023-10-08T02:14:10;11.40;99.90
11591;DHT22;5851;54.050;9.974;2023-10-08T02:16:39;11.30;99.90
11591;DHT22;5851;54.050;9.974;2023-10-08T02:19:06;11.10;99.90
11591;DHT22;5851;54.050;9.974;2023-10-08T02:21:36;11.10;99.90
11591;DHT22;5851;54.050;9.974;2023-10-08T02:24:06;11.20;99.90
11591;DHT22;5851;54.050;9.974;2023-10-08T02:26:34;11.20;99.90
11591;DHT22;5851;54.050;9.974;2023-10-08T02:29:01;11.20;99.90
11591;DHT22;5851;54.050;9.974;2023-10-08T02:31:31;11.20;99.90
11591;DHT22;5851;54.050;9.974;2023-10-08T02:33:58;11.00;99.90
11591;DHT22;5851;54.050;9.974;2023-10-08T02:36:25;11.00;99.90
11591;DHT22;5851;54.050;9.974;2023-10-08T02:38:52;11.00;99.90
11591;DHT22;5851;54.050;9.974;2023-10-08T02:41:20;11.10;99.90
11591;DHT22;5851;54.050;9.974;2023-10-08T02:43:50;11.20;99.90
11591;DHT22;5851;54.050;9.974;2023-10-08T02:46:18;11.10;99.90
11591;DHT22;5851;54.050;9.974;2023-10-08T02:48:45;10.90;99.90
11591;DHT22;5851;54.050;9.974;2023-10-08T02:51:12;10.90;99.90
11591;DHT22;5851;54.050;9.974;2023-10-08T02:53:40;10.90;99.90
11591;DHT22;5851;54.050;9.974;2023-10-08T02:56:09;11.00;99.90
11591;DHT22;5851;54.050;9.974;2023-10-08T02:58:39;11.00;99.90
11591;DHT22;5851;54.050;9.974;2023-10-08T03:01:09;11.00;99.90
11591;DHT22;5851;54.050;9.974;2023-10-08T03:03:40;11.00;99.90
11591;DHT22;5851;54.050;9.974;2023-10-08T03:06:08;11.00;99.90
11591;DHT22;5851;54.050;9.974;2023-10-08T03:08:37;11.00;99.90
11591;DHT22;5851;54.050;9.974;2023-10-08T03:11:09;10.90;99.90
11591;DHT22;5851;54.050;9.974;2023-10-08T03:13:43;10.90;99.90
11591;DHT22;5851;54.050;9.974;2023-10-08T03:16:12;11.00;99.90
11591;DHT22;5851;54.050;9.974;2023-10-08T03:18:41;11.00;99.90
11591;DHT22;5851;54.050;9.974;2023-10-08T03:21:11;11.00;99.90
11591;DHT22;5851;54.050;9.974;2023-10-08T03:23:47;11.10;99.90
11591;DHT22;5851;54.050;9.974;2023-10-08T03:26:16;11.00;99.90
11591;DHT22;5851;54.050;9.974;2023-10-08T03:29:00;11.00;99.90
11591;DHT22;5851;54.050;9.974;2023-10-08T03:31:33;10.90;99.90
11591;DHT22;5851;54.050;9.974;2023-10-08T03:34:18;10.90;99.90
11591;DHT22;5851;54.050;9.974;2023-10-08T03:36:46;10.80;99.90
11591;DHT22;5851;54.050;9.974;2023-10-08T03:39:16;10.90;99.90
11591;DHT22;5851;54.050;9.974;2023-10-08T03:41:44;10.80;99.90
11591;DHT22;5851;54.050;9.974;2023-10-08T03:44:23;10.70;99.90
11591;DHT22;5851;54.050;9.974;2023-10-08T03:46:50;10.60;99.90
11591;DHT22;5851;54.050;9.974;2023-10-08T03:49:19;10.50;99.90
11591;DHT22;5851;54.050;9.974;2023-10-08T03:51:53;10.50;99.90
11591;DHT22;5851;54.050;9.974;2023-10-08T03:54:23;10.50;99.90
11591;DHT22;5851;54.050;9.974;2023-10-08T03:56:55;10.40;99.90
11591;DHT22;5851;54.050;9.974;2023-10-08T03:59:23;10.30;99.90
11591;DHT22;5851;54.050;9.974;2023-10-08T04:01:57;10.20;99.90
11591;DHT22;5851;54.050;9.974;2023-10-08T04:04:28;10.20;99.90
11591;DHT22;5851;54.050;9.974;2023-10-08T04:07:15;10.30;99.90
11591;DHT22;5851;54.050;9.974;2023-10-08T04:09:54;10.20;99.90
11591;DHT22;5851;54.050;9.974;2023-10-08T04:12:39;10.10;99.90
11591;DHT22;5851;54.050;9.974;2023-10-08T04:15:10;10.00;99.90
11591;DHT22;5851;54.050;9.974;2023-10-08T04:17:38;10.00;99.90
11591;DHT22;5851;54.050;9.974;2023-10-08T04:20:13;10.10;99.90
11591;DHT22;5851;54.050;9.974;2023-10-08T04:22:56;10.10;99.90
11591;DHT22;5851;54.050;9.974;2023-10-08T04:25:25;10.10;99.90
11591;DHT22;5851;54.050;9.974;2023-10-08T04:27:53;10.10;99.90
11591;DHT22;5851;54.050;9.974;2023-10-08T04:30:24;10.10;99.90
11591;DHT22;5851;54.050;9.974;2023-10-08T04:32:58;10.00;99.90
11591;DHT22;5851;54.050;9.974;2023-10-08T04:35:33;10.10;99.90
11591;DHT22;5851;54.050;9.974;2023-10-08T04:38:03;10.10;99.90
11591;DHT22;5851;54.050;9.974;2023-10-08T04:40:30;10.10;99.90
11591;DHT22;5851;54.050;9.974;2023-10-08T04:43:05;10.20;99.90
11591;DHT22;5851;54.050;9.974;2023-10-08T04:45:36;10.20;99.90
11591;DHT22;5851;54.050;9.974;2023-10-08T04:48:04;10.40;99.90
11591;DHT22;5851;54.050;9.974;2023-10-08T04:50:36;10.20;99.90
11591;DHT22;5851;54.050;9.974;2023-10-08T04:53:04;10.10;99.90
11591;DHT22;5851;54.050;9.974;2023-10-08T04:55:34;10.00;99.90
11591;DHT22;5851;54.050;9.974;2023-10-08T04:58:01;9.90;99.90
11591;DHT22;5851;54.050;9.974;2023-10-08T05:00:37;9.90;99.90
11591;DHT22;5851;54.050;9.974;2023-10-08T05:03:19;10.00;99.90
11591;DHT22;5851;54.050;9.974;2023-10-08T05:05:49;10.10;99.90
11591;DHT22;5851;54.050;9.974;2023-10-08T05:08:33;10.10;99.90
11591;DHT22;5851;54.050;9.974;2023-10-08T05:11:13;10.00;99.90
11591;DHT22;5851;54.050;9.974;2023-10-08T05:14:02;10.10;99.90
11591;DHT22;5851;54.050;9.974;2023-10-08T05:16:31;10.10;99.90
11591;DHT22;5851;54.050;9.974;2023-10-08T05:19:15;10.00;99.90
11591;DHT22;5851;54.050;9.974;2023-10-08T05:22:00;10.10;99.90
11591;DHT22;5851;54.050;9.974;2023-10-08T05:24:44;9.90;99.90
11591;DHT22;5851;54.050;9.974;2023-10-08T05:27:31;9.90;99.90
11591;DHT22;5851;54.050;9.974;2023-10-08T05:30:16;9.80;99.90
11591;DHT22;5851;54.050;9.974;2023-10-08T05:32:52;9.70;99.90
11591;DHT22;5851;54.050;9.974;2023-10-08T05:35:32;9.60;99.90
11591;DHT22;5851;54.050;9.974;2023-10-08T05:38:22;9.50;99.90
11591;DHT22;5851;54.050;9.974;2023-10-08T05:40:50;9.60;99.90
11591;DHT22;5851;54.050;9.974;2023-10-08T05:43:53;9.60;99.90
11591;DHT22;5851;54.050;9.974;2023-10-08T05:46:40;9.50;99.90
11591;DHT22;5851;54.050;9.974;2023-10-08T05:49:22;9.40;99.90
11591;DHT22;5851;54.050;9.974;2023-10-08T05:52:07;9.30;99.90
11591;DHT22;5851;54.050;9.974;2023-10-08T05:55:08;9.30;99.90
11591;DHT22;5851;54.050;9.974;2023-10-08T05:57:48;9.20;99.90
11591;DHT22;5851;54.050;9.974;2023-10-08T06:00:18;9.30;99.90
11591;DHT22;5851;54.050;9.974;2023-10-08T06:03:11;9.30;99.90
11591;DHT22;5851;54.050;9.974;2023-10-08T06:05:59;9.30;99.90
11591;DHT22;5851;54.050;9.974;2023-10-08T06:08:43;9.30;99.90
11591;DHT22;5851;54.050;9.974;2023-10-08T06:11:33;9.30;99.90
11591;DHT22;5851;54.050;9.974;2023-10-08T06:14:07;9.30;99.90
11591;DHT22;5851;54.050;9.974;2023-10-08T06:16:42;9.30;99.90
11591;DHT22;5851;54.050;9.974;2023-10-08T06:19:12;9.20;99.90
11591;DHT22;5851;54.050;9.974;2023-10-08T06:21:40;9.40;99.90
11591;DHT22;5851;54.050;9.974;2023-10-08T06:24:08;9.60;99.90
11591;DHT22;5851;54.050;9.974;2023-10-08T06:26:38;9.60;99.90
11591;DHT22;5851;54.050;9.974;2023-10-08T06:29:10;9.90;99.90
11591;DHT22;5851;54.050;9.974;2023-10-08T06:31:52;10.00;99.90
11591;DHT22;5851;54.050;9.974;2023-10-08T06:34:21;9.80;99.90
11591;DHT22;5851;54.050;9.974;2023-10-08T06:36:49;9.60;99.90
11591;DHT22;5851;54.050;9.974;2023-10-08T06:39:20;9.70;99.90
11591;DHT22;5851;54.050;9.974;2023-10-08T06:41:53;9.80;99.90
11591;DHT22;5851;54.050;9.974;2023-10-08T06:44:22;9.90;99.90
11591;DHT22;5851;54.050;9.974;2023-10-08T06:46:50;9.90;99.90
11591;DHT22;5851;54.050;9.974;2023-10-08T06:49:21;9.90;99.90
11591;DHT22;5851;54.050;9.974;2023-10-08T06:51:50;9.90;99.90
11591;DHT22;5851;54.050;9.974;2023-10-08T06:54:19;10.00;99.90
11591;DHT22;5851;54.050;9.974;2023-10-08T06:56:48;9.90;99.90
11591;DHT22;5851;54.050;9.974;2023-10-08T06:59:19;9.90;99.90
11591;DHT22;5851;54.050;9.974;2023-10-08T07:01:48;9.90;99.90
11591;DHT22;5851;54.050;9.974;2023-10-08T07:04:17;10.00;99.90
11591;DHT22;5851;54.050;9.974;2023-10-08T07:06:47;10.00;99.90
11591;DHT22;5851;54.050;9.974;2023-10-08T07:09:14;10.00;99.90
11591;DHT22;5851;54.050;9.974;2023-10-08T07:11:54;10.00;99.90
11591;DHT22;5851;54.050;9.974;2023-10-08T07:14:23;10.10;99.90
11591;DHT22;5851;54.050;9.974;2023-10-08T07:16:53;10.20;99.90
11591;DHT22;5851;54.050;9.974;2023-10-08T07:19:20;10.20;99.90
11591;DHT22;5851;54.050;9.974;2023-10-08T07:21:54;10.20;99.90
11591;DHT22;5851;54.050;9.974;2023-10-08T07:24:29;10.20;99.90
11591;DHT22;5851;54.050;9.974;2023-10-08T07:27:00;10.10;99.90
11591;DHT22;5851;54.050;9.974;2023-10-08T07:29:32;10.20;99.90
11591;DHT22;5851;54.050;9.974;2023-10-08T07:32:00;10.30;99.90
11591;DHT22;5851;54.050;9.974;2023-10-08T07:34:35;10.20;99.90
11591;DHT22;5851;54.050;9.974;2023-10-08T07:37:02;10.30;99.90
11591;DHT22;5851;54.050;9.974;2023-10-08T07:39:31;10.30;99.90
11591;DHT22;5851;54.050;9.974;2023-10-08T07:42:03;10.20;99.90
11591;DHT22;5851;54.050;9.974;2023-10-08T07:44:35;10.40;99.90
11591;DHT22;5851;54.050;9.974;2023-10-08T07:47:04;10.40;99.90
11591;DHT22;5851;54.050;9.974;2023-10-08T07:49:35;10.50;99.90
11591;DHT22;5851;54.050;9.974;2023-10-08T07:52:02;10.60;99.90
11591;DHT22;5851;54.050;9.974;2023-10-08T07:54:31;10.70;99.90
11591;DHT22;5851;54.050;9.974;2023-10-08T07:57:00;10.50;99.90
11591;DHT22;5851;54.050;9.974;2023-10-08T07:59:37;10.60;99.90
11591;DHT22;5851;54.050;9.974;2023-10-08T08:02:08;10.70;99.90
11591;DHT22;5851;54.050;9.974;2023-10-08T08:04:35;11.00;99.90
11591;DHT22;5851;54.050;9.974;2023-10-08T08:07:03;10.80;99.90
11591;DHT22;5851;54.050;9.974;2023-10-08T08:09:31;10.80;99.90
11591;DHT22;5851;54.050;9.974;2023-10-08T08:12:04;10.90;99.90
11591;DHT22;5851;54.050;9.974;2023-10-08T08:14:33;10.90;99.90
11591;DHT22;5851;54.050;9.974;2023-10-08T08:17:05;10.80;99.90
11591;DHT22;5851;54.050;9.974;2023-10-08T08:19:40;10.90;99.90
11591;DHT22;5851;54.050;9.974;2023-10-08T08:22:07;11.00;99.90
11591;DHT22;5851;54.050;9.974;2023-10-08T08:24:33;11.20;99.90
11591;DHT22;5851;54.050;9.974;2023-10-08T08:27:03;11.20;99.90
11591;DHT22;5851;54.050;9.974;2023-10-08T08:29:37;11.20;99.90
11591;DHT22;5851;54.050;9.974;2023-10-08T08:32:12;11.10;99.90
11591;DHT22;5851;54.050;9.974;2023-10-08T08:34:41;11.10;99.90
11591;DHT22;5851;54.050;9.974;2023-10-08T08:37:09;11.10;99.90
11591;DHT22;5851;54.050;9.974;2023-10-08T08:39:37;11.30;99.90
11591;DHT22;5851;54.050;9.974;2023-10-08T08:42:04;11.30;99.90
11591;DHT22;5851;54.050;9.974;2023-10-08T08:44:35;11.40;99.90
11591;DHT22;5851;54.050;9.974;2023-10-08T08:47:05;11.40;99.90
11591;DHT22;5851;54.050;9.974;2023-10-08T08:49:35;11.50;99.90
11591;DHT22;5851;54.050;9.974;2023-10-08T08:52:03;11.60;99.90
11591;DHT22;5851;54.050;9.974;2023-10-08T08:54:31;11.50;99.90
11591;DHT22;5851;54.050;9.974;2023-10-08T08:56:59;11.80;99.90
11591;DHT22;5851;54.050;9.974;2023-10-08T08:59:29;11.90;99.90
11591;DHT22;5851;54.050;9.974;2023-10-08T09:01:57;12.00;99.90
11591;DHT22;5851;54.050;9.974;2023-10-08T09:04:29;12.00;99.90
11591;DHT22;5851;54.050;9.974;2023-10-08T09:06:58;11.90;99.90
11591;DHT22;5851;54.050;9.974;2023-10-08T09:09:33;12.20;99.90
11591;DHT22;5851;54.050;9.974;2023-10-08T09:12:00;12.20;99.90
11591;DHT22;5851;54.050;9.974;2023-10-08T09:14:31;12.20;99.90
11591;DHT22;5851;54.050;9.974;2023-10-08T09:17:00;11.90;99.90
11591;DHT22;5851;54.050;9.974;2023-10-08T09:19:30;12.10;99.90
11591;DHT22;5851;54.050;9.974;2023-10-08T09:22:05;12.20;99.90
11591;DHT22;5851;54.050;9.974;2023-10-08T09:24:33;12.30;99.90
11591;DHT22;5851;54.050;9.974;2023-10-08T09:27:04;12.50;99.90
11591;DHT22;5851;54.050;9.974;2023-10-08T09:29:31;12.40;99.90
11591;DHT22;5851;54.050;9.974;2023-10-08T09:31:59;12.40;99.90
11591;DHT22;5851;54.050;9.974;2023-10-08T09:34:27;12.30;99.90
11591;DHT22;5851;54.050;9.974;2023-10-08T09:36:56;12.30;99.90
11591;DHT22;5851;54.050;9.974;2023-10-08T09:39:27;12.40;99.90
11591;DHT22;5851;54.050;9.974;2023-10-08T09:41:56;12.40;99.90
11591;DHT22;5851;54.050;9.974;2023-10-08T09:44:24;12.30;99.90
11591;DHT22;5851;54.050;9.974;2023-10-08T09:47:00;12.30;99.90
11591;DHT22;5851;54.050;9.974;2023-10-08T09:49:31;12.40;99.90
11591;DHT22;5851;54.050;9.974;2023-10-08T09:52:01;12.40;99.90
11591;DHT22;5851;54.050;9.974;2023-10-08T09:54:31;12.30;99.90
11591;DHT22;5851;54.050;9.974;2023-10-08T09:57:05;12.30;99.90
11591;DHT22;5851;54.050;9.974;2023-10-08T09:59:33;12.40;99.90
11591;DHT22;5851;54.050;9.974;2023-10-08T10:02:01;12.30;99.90
11591;DHT22;5851;54.050;9.974;2023-10-08T10:04:30;12.20;99.90
11591;DHT22;5851;54.050;9.974;2023-10-08T10:06:58;12.20;99.90
11591;DHT22;5851;54.050;9.974;2023-10-08T10:09:26;12.20;99.90
11591;DHT22;5851;54.050;9.974;2023-10-08T10:11:55;12.10;99.90
11591;DHT22;5851;54.050;9.974;2023-10-08T10:14:23;12.20;99.90
11591;DHT22;5851;54.050;9.974;2023-10-08T10:17:08;12.40;99.90
11591;DHT22;5851;54.050;9.974;2023-10-08T10:19:36;12.40;99.90
11591;DHT22;5851;54.050;9.974;2023-10-08T10:22:03;12.30;99.90
11591;DHT22;5851;54.050;9.974;2023-10-08T10:24:33;12.30;99.90
11591;DHT22;5851;54.050;9.974;2023-10-08T10:27:12;12.40;99.90
11591;DHT22;5851;54.050;9.974;2023-10-08T10:29:41;12.50;99.90
11591;DHT22;5851;54.050;9.974;2023-10-08T10:32:11;12.50;99.90
11591;DHT22;5851;54.050;9.974;2023-10-08T10:34:40;12.60;99.90
11591;DHT22;5851;54.050;9.974;2023-10-08T10:37:08;12.70;99.90
11591;DHT22;5851;54.050;9.974;2023-10-08T10:39:52;12.60;99.90
11591;DHT22;5851;54.050;9.974;2023-10-08T10:42:23;12.60;99.90
11591;DHT22;5851;54.050;9.974;2023-10-08T10:44:52;12.60;99.90
11591;DHT22;5851;54.050;9.974;2023-10-08T10:47:21;12.60;99.90
11591;DHT22;5851;54.050;9.974;2023-10-08T10:49:54;12.60;99.90
11591;DHT22;5851;54.050;9.974;2023-10-08T10:52:41;12.60;99.90
11591;DHT22;5851;54.050;9.974;2023-10-08T10:55:11;12.60;99.90
11591;DHT22;5851;54.050;9.974;2023-10-08T10:57:52;12.60;99.90
11591;DHT22;5851;54.050;9.974;2023-10-08T11:00:28;12.60;99.90
11591;DHT22;5851;54.050;9.974;2023-10-08T11:03:13;12.60;99.90
11591;DHT22;5851;54.050;9.974;2023-10-08T11:05:45;12.60;99.50
11591;DHT22;5851;54.050;9.974;2023-10-08T11:08:17;12.70;99.90
11591;DHT22;5851;54.050;9.974;2023-10-08T11:10:47;12.70;99.90
11591;DHT22;5851;54.050;9.974;2023-10-08T11:13:19;12.70;98.80
11591;DHT22;5851;54.050;9.974;2023-10-08T11:15:48;12.70;98.80
11591;DHT22;5851;54.050;9.974;2023-10-08T11:18:19;12.70;98.60
11591;DHT22;5851;54.050;9.974;2023-10-08T11:20:47;12.70;99.00
11591;DHT22;5851;54.050;9.974;2023-10-08T11:23:33;12.60;97.90
11591;DHT22;5851;54.050;9.974;2023-10-08T11:26:03;12.60;97.20
11591;DHT22;5851;54.050;9.974;2023-10-08T11:28:34;12.60;99.10
11591;DHT22;5851;54.050;9.974;2023-10-08T11:31:06;12.70;99.90
11591;DHT22;5851;54.050;9.974;2023-10-08T11:33:35;12.80;99.90
11591;DHT22;5851;54.050;9.974;2023-10-08T11:36:03;12.80;98.90
11591;DHT22;5851;54.050;9.974;2023-10-08T11:38:38;12.90;99.90
11591;DHT22;5851;54.050;9.974;2023-10-08T11:41:11;13.00;99.90
11591;DHT22;5851;54.050;9.974;2023-10-08T11:43:48;13.00;99.90
11591;DHT22;5851;54.050;9.974;2023-10-08T11:46:20;12.90;99.90
11591;DHT22;5851;54.050;9.974;2023-10-08T11:48:47;13.00;99.90
11591;DHT22;5851;54.050;9.974;2023-10-08T11:51:16;12.90;99.50
11591;DHT22;5851;54.050;9.974;2023-10-08T11:53:43;12.90;98.80
11591;DHT22;5851;54.050;9.974;2023-10-08T11:56:11;13.00;99.90
11591;DHT22;5851;54.050;9.974;2023-10-08T11:58:40;13.00;99.50
11591;DHT22;5851;54.050;9.974;2023-10-08T12:01:11;13.00;99.60
11591;DHT22;5851;54.050;9.974;2023-10-08T12:03:42;13.00;99.70
11591;DHT22;5851;54.050;9.974;2023-10-08T12:06:10;13.00;97.80
11591;DHT22;5851;54.050;9.974;2023-10-08T12:08:41;13.00;96.50
11591;DHT22;5851;54.050;9.974;2023-10-08T12:11:12;13.00;96.30
11591;DHT22;5851;54.050;9.974;2023-10-08T12:13:39;13.00;96.20
11591;DHT22;5851;54.050;9.974;2023-10-08T12:16:12;13.00;96.30
11591;DHT22;5851;54.050;9.974;2023-10-08T12:18:44;13.10;97.20
11591;DHT22;5851;54.050;9.974;2023-10-08T12:21:14;13.10;95.20
11591;DHT22;5851;54.050;9.974;2023-10-08T12:23:43;13.00;95.20
11591;DHT22;5851;54.050;9.974;2023-10-08T12:26:12;13.00;96.40
11591;DHT22;5851;54.050;9.974;2023-10-08T12:28:42;13.00;97.40
11591;DHT22;5851;54.050;9.974;2023-10-08T12:31:12;13.00;96.00
11591;DHT22;5851;54.050;9.974;2023-10-08T12:33:41;13.00;95.70
11591;DHT22;5851;54.050;9.974;2023-10-08T12:36:10;12.90;96.30
11591;DHT22;5851;54.050;9.974;2023-10-08T12:38:38;12.90;96.10
11591;DHT22;5851;54.050;9.974;2023-10-08T12:41:06;13.00;99.10
11591;DHT22;5851;54.050;9.974;2023-10-08T12:43:38;13.00;98.90
11591;DHT22;5851;54.050;9.974;2023-10-08T12:46:08;13.00;98.20
11591;DHT22;5851;54.050;9.974;2023-10-08T12:48:45;13.00;98.20
11591;DHT22;5851;54.050;9.974;2023-10-08T12:51:16;13.00;98.70
11591;DHT22;5851;54.050;9.974;2023-10-08T12:53:43;13.00;98.80
11591;DHT22;5851;54.050;9.974;2023-10-08T12:56:17;13.00;99.70
11591;DHT22;5851;54.050;9.974;2023-10-08T12:58:47;13.00;96.80
11591;DHT22;5851;54.050;9.974;2023-10-08T13:01:15;13.00;97.00
11591;DHT22;5851;54.050;9.974;2023-10-08T13:03:45;12.90;97.10
11591;DHT22;5851;54.050;9.974;2023-10-08T13:06:15;13.00;96.80
11591;DHT22;5851;54.050;9.974;2023-10-08T13:08:48;13.00;96.70
11591;DHT22;5851;54.050;9.974;2023-10-08T13:11:17;13.00;96.70
11591;DHT22;5851;54.050;9.974;2023-10-08T13:13:49;13.00;97.50
11591;DHT22;5851;54.050;9.974;2023-10-08T13:16:16;13.00;98.60
11591;DHT22;5851;54.050;9.974;2023-10-08T13:18:45;13.00;98.50
11591;DHT22;5851;54.050;9.974;2023-10-08T13:21:12;13.00;97.90
11591;DHT22;5851;54.050;9.974;2023-10-08T13:23:39;13.00;97.20
11591;DHT22;5851;54.050;9.974;2023-10-08T13:26:06;13.00;97.30
11591;DHT22;5851;54.050;9.974;2023-10-08T13:28:34;13.00;98.10
11591;DHT22;5851;54.050;9.974;2023-10-08T13:31:01;13.00;97.60
11591;DHT22;5851;54.050;9.974;2023-10-08T13:33:36;13.10;97.60
11591;DHT22;5851;54.050;9.974;2023-10-08T13:36:06;13.10;97.10
11591;DHT22;5851;54.050;9.974;2023-10-08T13:38:37;13.00;96.70
11591;DHT22;5851;54.050;9.974;2023-10-08T13:41:06;13.00;96.90
11591;DHT22;5851;54.050;9.974;2023-10-08T13:43:41;13.00;96.50
11591;DHT22;5851;54.050;9.974;2023-10-08T13:46:12;13.00;96.80
11591;DHT22;5851;54.050;9.974;2023-10-08T13:48:40;13.10;96.70
11591;DHT22;5851;54.050;9.974;2023-10-08T13:51:08;13.10;97.70
11591;DHT22;5851;54.050;9.974;2023-10-08T13:53:39;13.10;98.60
11591;DHT22;5851;54.050;9.974;2023-10-08T13:56:11;13.00;98.10
11591;DHT22;5851;54.050;9.974;2023-10-08T13:58:38;13.00;98.40
11591;DHT22;5851;54.050;9.974;2023-10-08T14:01:11;13.00;98.70
11591;DHT22;5851;54.050;9.974;2023-10-08T14:03:46;13.00;98.80
11591;DHT22;5851;54.050;9.974;2023-10-08T14:06:14;13.00;99.80
11591;DHT22;5851;54.050;9.974;2023-10-08T14:08:42;13.00;99.10
11591;DHT22;5851;54.050;9.974;2023-10-08T14:11:17;13.00;99.90
11591;DHT22;5851;54.050;9.974;2023-10-08T14:13:44;13.00;99.90
11591;DHT22;5851;54.050;9.974;2023-10-08T14:16:13;13.00;97.90
11591;DHT22;5851;54.050;9.974;2023-10-08T14:18:41;12.90;97.80
11591;DHT22;5851;54.050;9.974;2023-10-08T14:21:08;12.90;97.40
11591;DHT22;5851;54.050;9.974;2023-10-08T14:23:38;12.90;97.70
11591;DHT22;5851;54.050;9.974;2023-10-08T14:26:06;12.80;98.00
11591;DHT22;5851;54.050;9.974;2023-10-08T14:28:33;12.90;97.90
11591;DHT22;5851;54.050;9.974;2023-10-08T14:31:17;12.80;98.20
11591;DHT22;5851;54.050;9.974;2023-10-08T14:33:48;12.80;97.20
11591;DHT22;5851;54.050;9.974;2023-10-08T14:36:31;12.80;97.70
11591;DHT22;5851;54.050;9.974;2023-10-08T14:39:17;12.80;98.60
11591;DHT22;5851;54.050;9.974;2023-10-08T14:42:10;12.90;99.00
11591;DHT22;5851;54.050;9.974;2023-10-08T14:44:54;12.80;99.20
11591;DHT22;5851;54.050;9.974;2023-10-08T14:47:22;12.80;98.80
11591;DHT22;5851;54.050;9.974;2023-10-08T14:49:49;12.80;98.90
11591;DHT22;5851;54.050;9.974;2023-10-08T14:52:16;12.80;99.30
11591;DHT22;5851;54.050;9.974;2023-10-08T14:54:45;12.90;99.70
11591;DHT22;5851;54.050;9.974;2023-10-08T14:57:12;12.90;99.90
11591;DHT22;5851;54.050;9.974;2023-10-08T14:59:40;12.90;99.90
11591;DHT22;5851;54.050;9.974;2023-10-08T15:02:07;12.80;99.90
11591;DHT22;5851;54.050;9.974;2023-10-08T15:04:35;12.80;99.90
11591;DHT22;5851;54.050;9.974;2023-10-08T15:07:05;12.80;99.20
11591;DHT22;5851;54.050;9.974;2023-10-08T15:09:34;12.80;99.40
11591;DHT22;5851;54.050;9.974;2023-10-08T15:12:02;12.80;99.80
11591;DHT22;5851;54.050;9.974;2023-10-08T15:14:29;12.80;99.90
11591;DHT22;5851;54.050;9.974;2023-10-08T15:16:57;12.80;99.30
11591;DHT22;5851;54.050;9.974;2023-10-08T15:19:24;12.80;99.40
11591;DHT22;5851;54.050;9.974;2023-10-08T15:21:51;12.80;99.80
11591;DHT22;5851;54.050;9.974;2023-10-08T15:24:18;12.80;99.90
11591;DHT22;5851;54.050;9.974;2023-10-08T15:26:47;12.80;99.90
11591;DHT22;5851;54.050;9.974;2023-10-08T15:29:15;12.80;99.90
11591;DHT22;5851;54.050;9.974;2023-10-08T15:31:42;12.80;99.90
11591;DHT22;5851;54.050;9.974;2023-10-08T15:34:10;12.80;99.90
11591;DHT22;5851;54.050;9.974;2023-10-08T15:36:38;12.80;99.90
11591;DHT22;5851;54.050;9.974;2023-10-08T15:39:05;12.70;99.90
11591;DHT22;5851;54.050;9.974;2023-10-08T15:41:35;12.80;99.90
11591;DHT22;5851;54.050;9.974;2023-10-08T15:44:03;12.80;99.90
11591;DHT22;5851;54.050;9.974;2023-10-08T15:46:32;12.70;99.90
11591;DHT22;5851;54.050;9.974;2023-10-08T15:49:00;12.70;99.90
11591;DHT22;5851;54.050;9.974;2023-10-08T15:51:28;12.70;99.50
11591;DHT22;5851;54.050;9.974;2023-10-08T15:53:57;12.60;99.40
11591;DHT22;5851;54.050;9.974;2023-10-08T15:56:24;12.60;99.50
11591;DHT22;5851;54.050;9.974;2023-10-08T15:58:52;12.50;99.90
11591;DHT22;5851;54.050;9.974;2023-10-08T16:01:18;12.50;99.90
11591;DHT22;5851;54.050;9.974;2023-10-08T16:03:47;12.50;99.90
11591;DHT22;5851;54.050;9.974;2023-10-08T16:06:14;12.50;99.90
11591;DHT22;5851;54.050;9.974;2023-10-08T16:08:41;12.50;99.90
11591;DHT22;5851;54.050;9.974;2023-10-08T16:11:07;12.60;99.90
11591;DHT22;5851;54.050;9.974;2023-10-08T16:13:34;12.50;99.90